^^
Your Local Weather - Clay, NY Station Historical Data
Daily Summary for October 19, 2017 Units:  English    Metric   Both
« Previous Day
Next Day »
Daily Weekly Monthly Yearly Custom
  High: Low: Average:
Temperature: 72.6 °F 44.1 °F 58.6 °F
Dew Point: 50.3 °F 41.7 °F 45.2 °F
Humidity: 92% 34% 65%
Wind Speed: 8.0mph 0.0mph 2mph
Wind Gust: 15.0mph - -
Wind- - WSW
Pressure: 30.11 in 29.91 in -
Precipitation: 0.00 in    
Historical Graphs
 
 
Tabular Data for October 19, 2017
Time Temperature Dew Point Pressure Wind Wind Speed Wind Gust Humidity Rainfall Rate (Hourly) solar
00:00 48.6 °F 45.2 °F 30.11 in Calm     88% 0.00 in 0 W/m2
00:06 48.5 °F 45.1 °F 30.11 in Calm     88% 0.00 in 0 W/m2
00:12 48.5 °F 44.8 °F 30.11 in Calm     87% 0.00 in 0 W/m2
00:18 48.6 °F 44.9 °F 30.11 in Calm     87% 0.00 in 0 W/m2
00:24 48.8 °F 45.1 °F 30.11 in Calm     87% 0.00 in 0 W/m2
00:29 48.9 °F 45.2 °F 30.11 in Calm     87% 0.00 in 0 W/m2
00:34 49.0 °F 45.0 °F 30.11 in Calm     86% 0.00 in 0 W/m2
00:40 49.4 °F 45.4 °F 30.11 in Calm     86% 0.00 in 0 W/m2
00:48 49.8 °F 45.2 °F 30.11 in Calm     84% 0.00 in 0 W/m2
00:54 49.8 °F 44.8 °F 30.11 in Calm     83% 0.00 in 0 W/m2
01:00 49.8 °F 44.8 °F 30.11 in Calm     83% 0.00 in 0 W/m2
01:06 49.7 °F 45.1 °F 30.11 in Calm     84% 0.00 in 0 W/m2
01:12 49.6 °F 45.0 °F 30.11 in Calm     84% 0.00 in 0 W/m2
01:14 49.6 °F 45.0 °F 30.11 in Calm     84% 0.00 in 0 W/m2
01:20 49.6 °F 45.0 °F 30.11 in Calm     84% 0.00 in 0 W/m2
01:26 49.5 °F 44.9 °F 30.11 in Calm     84% 0.00 in 0 W/m2
01:32 49.2 °F 44.6 °F 30.11 in Calm     84% 0.00 in 0 W/m2
01:38 49.0 °F 44.4 °F 30.11 in Calm     84% 0.00 in 0 W/m2
01:44 48.9 °F 44.3 °F 30.11 in Calm     84% 0.00 in 0 W/m2
01:49 48.8 °F 44.2 °F 30.11 in Calm     84% 0.00 in 0 W/m2
01:56 48.9 °F 44.6 °F 30.11 in Calm     85% 0.00 in 0 W/m2
02:02 48.6 °F 44.0 °F 30.11 in Calm     84% 0.00 in 0 W/m2
02:08 48.3 °F 44.0 °F 30.11 in Calm     85% 0.00 in 0 W/m2
02:14 48.1 °F 43.8 °F 30.11 in Calm     85% 0.00 in 0 W/m2
02:20 48.2 °F 44.2 °F 30.11 in Calm     86% 0.00 in 0 W/m2
02:26 48.1 °F 44.4 °F 30.11 in Calm     87% 0.00 in 0 W/m2
02:32 47.9 °F 44.2 °F 30.10 in Calm     87% 0.00 in 0 W/m2
02:38 47.7 °F 44.3 °F 30.10 in Calm     88% 0.00 in 0 W/m2
02:43 47.5 °F 44.1 °F 30.10 in Calm     88% 0.00 in 0 W/m2
02:52 47.0 °F 43.6 °F 30.10 in Calm     88% 0.00 in 0 W/m2
02:58 46.7 °F 43.3 °F 30.09 in Calm     88% 0.00 in 0 W/m2
03:04 46.6 °F 43.5 °F 30.09 in Calm     89% 0.00 in 0 W/m2
03:10 46.3 °F 43.2 °F 30.09 in Calm     89% 0.00 in 0 W/m2
03:16 46.2 °F 43.1 °F 30.09 in Calm     89% 0.00 in 0 W/m2
03:28 46.1 °F 43.3 °F 30.09 in Calm     90% 0.00 in 0 W/m2
03:34 45.8 °F 43.0 °F 30.09 in Calm     90% 0.00 in 0 W/m2
03:40 45.6 °F 42.8 °F 30.09 in Calm     90% 0.00 in 0 W/m2
03:46 45.6 °F 42.8 °F 30.09 in Calm     90% 0.00 in 0 W/m2
03:52 45.5 °F 42.7 °F 30.09 in Calm     90% 0.00 in 0 W/m2
03:58 45.2 °F 42.4 °F 30.09 in Calm     90% 0.00 in 0 W/m2
04:04 45.1 °F 42.3 °F 30.09 in Calm     90% 0.00 in 0 W/m2
04:10 45.0 °F 42.2 °F 30.09 in Calm     90% 0.00 in 0 W/m2
04:16 45.0 °F 42.2 °F 30.09 in Calm     90% 0.00 in 0 W/m2
04:22 44.8 °F 42.3 °F 30.09 in Calm     91% 0.00 in 0 W/m2
04:28 44.6 °F 41.8 °F 30.09 in Calm     90% 0.00 in 0 W/m2
04:34 44.5 °F 42.0 °F 30.09 in Calm     91% 0.00 in 0 W/m2
04:40 44.5 °F 42.0 °F 30.09 in Calm     91% 0.00 in 0 W/m2
04:46 44.3 °F 41.8 °F 30.09 in Calm   2.0 mph 91% 0.00 in 0 W/m2
04:52 44.3 °F 41.8 °F 30.09 in Calm     91% 0.00 in 0 W/m2
04:58 44.2 °F 41.7 °F 30.08 in Calm     91% 0.00 in 0 W/m2
05:04 44.2 °F 41.7 °F 30.08 in Calm     91% 0.00 in 0 W/m2
05:10 44.3 °F 41.8 °F 30.08 in Calm     91% 0.00 in 0 W/m2
05:16 44.4 °F 42.2 °F 30.09 in Calm   1.0 mph 92% 0.00 in 0 W/m2
05:22 44.4 °F 42.2 °F 30.09 in Calm     92% 0.00 in 0 W/m2
05:28 44.3 °F 42.1 °F 30.09 in Calm     92% 0.00 in 0 W/m2
05:34 44.2 °F 42.0 °F 30.09 in Calm     92% 0.00 in 0 W/m2
05:40 44.1 °F 41.9 °F 30.09 in Calm     92% 0.00 in 0 W/m2
05:46 44.3 °F 42.1 °F 30.08 in Calm     92% 0.00 in 0 W/m2
05:52 44.3 °F 42.1 °F 30.08 in Calm     92% 0.00 in 0 W/m2
05:58 44.3 °F 42.1 °F 30.09 in Calm     92% 0.00 in 0 W/m2
06:04 44.3 °F 42.1 °F 30.09 in Calm     92% 0.00 in 0 W/m2
06:10 44.4 °F 42.2 °F 30.09 in Calm     92% 0.00 in 0 W/m2
06:16 44.4 °F 42.2 °F 30.08 in Calm     92% 0.00 in 0 W/m2
06:22 44.4 °F 42.2 °F 30.08 in Calm     92% 0.00 in 0 W/m2
06:28 44.3 °F 42.1 °F 30.08 in Calm     92% 0.00 in 0 W/m2
06:34 44.3 °F 42.1 °F 30.08 in Calm     92% 0.00 in 0 W/m2
06:40 44.3 °F 42.1 °F 30.08 in Calm     92% 0.00 in 0 W/m2
06:46 44.3 °F 42.1 °F 30.08 in Calm     92% 0.00 in 0 W/m2
06:52 44.3 °F 42.1 °F 30.07 in Calm     92% 0.00 in 0 W/m2
06:58 44.5 °F 42.3 °F 30.07 in Calm     92% 0.00 in 0 W/m2
07:04 44.7 °F 42.5 °F 30.07 in Calm     92% 0.00 in 0 W/m2
07:10 44.8 °F 42.6 °F 30.07 in Calm     92% 0.00 in 0 W/m2
07:16 44.8 °F 42.6 °F 30.07 in Calm     92% 0.00 in 0 W/m2
07:22 45.0 °F 42.8 °F 30.07 in Calm     92% 0.00 in 0 W/m2
07:28 45.1 °F 42.6 °F 30.07 in Calm   1.0 mph 91% 0.00 in 5 W/m2
07:34 45.2 °F 42.7 °F 30.07 in Calm   2.0 mph 91% 0.00 in 7 W/m2
07:40 45.9 °F 43.4 °F 30.07 in SSW 1.0 mph 1.0 mph 91% 0.00 in 11 W/m2
07:46 46.1 °F 43.0 °F 30.07 in Calm   3.0 mph 89% 0.00 in 12 W/m2
07:52 46.1 °F 43.0 °F 30.07 in Calm     89% 0.00 in 14 W/m2
07:58 46.0 °F 42.9 °F 30.07 in Calm     89% 0.00 in 18 W/m2
08:04 46.0 °F 42.9 °F 30.07 in Calm     89% 0.00 in 21 W/m2
08:10 46.0 °F 42.9 °F 30.07 in Calm     89% 0.00 in 26 W/m2
08:16 46.2 °F 43.1 °F 30.07 in Calm   2.0 mph 89% 0.00 in 28 W/m2
08:22 46.8 °F 43.7 °F 30.07 in SSW 1.0 mph 1.0 mph 89% 0.00 in 32 W/m2
08:28 47.6 °F 43.9 °F 30.07 in Calm   1.0 mph 87% 0.00 in 40 W/m2
08:36 49.2 °F 44.9 °F 30.07 in SSW 1.0 mph 3.0 mph 85% 0.00 in 67 W/m2
08:42 51.9 °F 45.6 °F 30.07 in SSW 1.0 mph 2.0 mph 79% 0.00 in 118 W/m2
08:48 54.2 °F 45.7 °F 30.07 in SSW 1.0 mph 4.0 mph 73% 0.00 in 181 W/m2
08:54 55.7 °F 46.1 °F 30.07 in South 2.0 mph 2.0 mph 70% 0.00 in 128 W/m2
09:00 56.9 °F 46.4 °F 30.08 in South 1.0 mph 1.0 mph 68% 0.00 in 165 W/m2
09:06 58.1 °F 45.1 °F 30.07 in SSW 3.0 mph 4.0 mph 62% 0.00 in 142 W/m2
09:12 59.1 °F 45.7 °F 30.07 in SSW 4.0 mph 4.0 mph 61% 0.00 in 193 W/m2
09:18 59.8 °F 44.5 °F 30.07 in SW 4.0 mph 5.0 mph 57% 0.00 in 237 W/m2
09:24 60.3 °F 45.0 °F 30.06 in South 3.0 mph 6.0 mph 57% 0.00 in 221 W/m2
09:30 60.8 °F 45.9 °F 30.05 in SW 4.0 mph 5.0 mph 58% 0.00 in 248 W/m2
09:36 61.4 °F 44.6 °F 30.05 in South 4.0 mph 5.0 mph 54% 0.00 in 214 W/m2
09:42 62.0 °F 45.2 °F 30.05 in SW 4.0 mph 4.0 mph 54% 0.00 in 380 W/m2
09:48 62.5 °F 44.6 °F 30.05 in SW 4.0 mph 10.0 mph 52% 0.00 in 397 W/m2
09:54 62.9 °F 44.0 °F 30.06 in SW 4.0 mph 10.0 mph 50% 0.00 in 411 W/m2
10:00 63.2 °F 44.2 °F 30.05 in South 4.0 mph 8.0 mph 50% 0.00 in 399 W/m2
10:06 63.6 °F 46.1 °F 30.05 in South 4.0 mph 8.0 mph 53% 0.00 in 452 W/m2
10:12 63.5 °F 44.0 °F 30.05 in SW 6.0 mph 6.0 mph 49% 0.00 in 478 W/m2
10:20 63.7 °F 44.2 °F 30.04 in SW 6.0 mph 6.0 mph 49% 0.00 in 490 W/m2
10:26 64.2 °F 44.1 °F 30.04 in WSW 6.0 mph 9.0 mph 48% 0.00 in 520 W/m2
10:32 64.4 °F 44.8 °F 30.04 in SW 6.0 mph 7.0 mph 49% 0.00 in 515 W/m2
10:38 64.6 °F 45.0 °F 30.04 in SW 6.0 mph 15.0 mph 49% 0.00 in 534 W/m2
10:44 64.5 °F 44.4 °F 30.04 in South 7.0 mph 10.0 mph 48% 0.00 in 364 W/m2
10:50 64.9 °F 46.8 °F 30.03 in South 5.0 mph 5.0 mph 52% 0.00 in 536 W/m2
10:56 65.2 °F 44.5 °F 30.03 in SW 4.0 mph 5.0 mph 47% 0.00 in 506 W/m2
11:02 65.4 °F 44.6 °F 30.03 in WSW 6.0 mph 10.0 mph 47% 0.00 in 561 W/m2
11:08 65.2 °F 43.9 °F 30.03 in SW 7.0 mph 10.0 mph 46% 0.00 in 573 W/m2
11:14 65.7 °F 44.9 °F 30.03 in SW 5.0 mph 8.0 mph 47% 0.00 in 575 W/m2
11:20 65.3 °F 44.5 °F 30.03 in West 6.0 mph 6.0 mph 47% 0.00 in 534 W/m2
11:25 65.6 °F 44.8 °F 30.03 in SSE 5.0 mph 7.0 mph 47% 0.00 in 533 W/m2
11:32 65.7 °F 45.5 °F 30.03 in SSE 5.0 mph 5.0 mph 48% 0.00 in 441 W/m2
11:38 65.9 °F 45.1 °F 30.03 in SSW 5.0 mph 6.0 mph 47% 0.00 in 596 W/m2
11:44 66.0 °F 44.6 °F 30.03 in SW 6.0 mph 8.0 mph 46% 0.00 in 613 W/m2
11:50 66.7 °F 45.8 °F 30.03 in WSW 6.0 mph 6.0 mph 47% 0.00 in 606 W/m2
11:56 66.9 °F 44.9 °F 30.02 in SSW 5.0 mph 6.0 mph 45% 0.00 in 615 W/m2
12:02 66.9 °F 46.6 °F 30.02 in SW 6.0 mph 6.0 mph 48% 0.00 in 615 W/m2
12:14 67.8 °F 45.7 °F 30.02 in South 5.0 mph 7.0 mph 45% 0.00 in 628 W/m2
12:20 67.4 °F 45.3 °F 30.02 in SSE 5.0 mph 14.0 mph 45% 0.00 in 496 W/m2
12:26 66.9 °F 44.9 °F 30.02 in WSW 6.0 mph 14.0 mph 45% 0.00 in 603 W/m2
12:32 67.4 °F 44.1 °F 30.02 in WSW 6.0 mph 8.0 mph 43% 0.00 in 679 W/m2
12:40 67.3 °F 44.6 °F 30.01 in SSW 7.0 mph 10.0 mph 44% 0.00 in 480 W/m2
12:46 66.8 °F 43.6 °F 30.01 in SSW 8.0 mph 14.0 mph 43% 0.00 in 283 W/m2
12:52 67.5 °F 45.4 °F 30.00 in WSW 6.0 mph 8.0 mph 45% 0.00 in 343 W/m2
12:58 68.2 °F 44.8 °F 30.00 in West 4.0 mph 11.0 mph 43% 0.00 in 729 W/m2
13:04 68.8 °F 46.0 °F 30.00 in WSW 5.0 mph 13.0 mph 44% 0.00 in 673 W/m2
13:10 68.6 °F 45.2 °F 29.99 in SW 5.0 mph 5.0 mph 43% 0.00 in 552 W/m2
13:16 68.7 °F 45.9 °F 29.99 in SSW 6.0 mph 7.0 mph 44% 0.00 in 689 W/m2
13:22 68.3 °F 44.3 °F 29.99 in WSW 5.0 mph 6.0 mph 42% 0.00 in 598 W/m2
13:28 68.7 °F 44.7 °F 29.99 in SSW 5.0 mph 8.0 mph 42% 0.00 in 687 W/m2
13:34 68.5 °F 45.1 °F 29.99 in SSW 6.0 mph 9.0 mph 43% 0.00 in 645 W/m2
13:40 68.7 °F 44.7 °F 29.98 in SW 6.0 mph 7.0 mph 42% 0.00 in 694 W/m2
13:48 69.5 °F 45.4 °F 29.98 in SW 5.0 mph 7.0 mph 42% 0.00 in 693 W/m2
13:54 69.5 °F 44.8 °F 29.97 in SSW 5.0 mph 7.0 mph 41% 0.00 in 608 W/m2
14:00 69.4 °F 44.7 °F 29.97 in WNW 6.0 mph 6.0 mph 41% 0.00 in 684 W/m2
14:06 68.8 °F 44.1 °F 29.97 in WSW 6.0 mph 7.0 mph 41% 0.00 in 432 W/m2
14:12 69.7 °F 46.2 °F 29.96 in SSW 5.0 mph 9.0 mph 43% 0.00 in 649 W/m2
14:18 69.8 °F 45.0 °F 29.95 in SSE 5.0 mph 9.0 mph 41% 0.00 in 244 W/m2
14:24 69.8 °F 44.4 °F 29.95 in South 5.0 mph 9.0 mph 40% 0.00 in 582 W/m2
14:30 70.1 °F 44.0 °F 29.95 in SW 6.0 mph 6.0 mph 39% 0.00 in 394 W/m2
14:36 69.9 °F 45.1 °F 29.95 in South 6.0 mph 6.0 mph 41% 0.00 in 251 W/m2
14:42 69.6 °F 44.8 °F 29.95 in South 5.0 mph 6.0 mph 41% 0.00 in 450 W/m2
14:48 69.7 °F 44.9 °F 29.94 in SW 5.0 mph 6.0 mph 41% 0.00 in 246 W/m2
14:54 69.7 °F 44.9 °F 29.94 in SSW 4.0 mph 5.0 mph 41% 0.00 in 285 W/m2
14:59 69.9 °F 44.5 °F 29.94 in West 4.0 mph 4.0 mph 40% 0.00 in 555 W/m2
15:06 71.1 °F 44.2 °F 29.94 in WSW 5.0 mph 5.0 mph 38% 0.00 in 580 W/m2
15:12 71.9 °F 44.2 °F 29.94 in SW 5.0 mph 5.0 mph 37% 0.00 in 529 W/m2
15:18 72.3 °F 44.6 °F 29.94 in SSW 4.0 mph 5.0 mph 37% 0.00 in 552 W/m2
15:24 72.3 °F 43.8 °F 29.93 in SSE 5.0 mph 5.0 mph 36% 0.00 in 499 W/m2
15:30 72.2 °F 44.5 °F 29.93 in SSW 5.0 mph 5.0 mph 37% 0.00 in 487 W/m2
15:36 71.9 °F 43.5 °F 29.93 in West 6.0 mph 6.0 mph 36% 0.00 in 464 W/m2
15:42 71.7 °F 43.3 °F 29.92 in SW 6.0 mph 7.0 mph 36% 0.00 in 380 W/m2
15:48 71.8 °F 43.4 °F 29.92 in SW 6.0 mph 9.0 mph 36% 0.00 in 403 W/m2
15:54 72.0 °F 43.6 °F 29.92 in SSW 5.0 mph 6.0 mph 36% 0.00 in 396 W/m2
16:00 72.1 °F 42.9 °F 29.92 in SW 5.0 mph 5.0 mph 35% 0.00 in 371 W/m2
16:05 72.1 °F 43.7 °F 29.92 in SSW 6.0 mph 9.0 mph 36% 0.00 in 357 W/m2
16:12 72.4 °F 43.9 °F 29.91 in SW 5.0 mph 6.0 mph 36% 0.00 in 334 W/m2
16:18 72.4 °F 43.2 °F 29.91 in SW 5.0 mph 8.0 mph 35% 0.00 in 318 W/m2
16:24 72.6 °F 44.8 °F 29.91 in SSW 4.0 mph 5.0 mph 37% 0.00 in 295 W/m2
16:30 72.4 °F 42.4 °F 29.91 in SW 4.0 mph 7.0 mph 34% 0.00 in 181 W/m2
16:36 72.3 °F 43.1 °F 29.91 in SW 4.0 mph 7.0 mph 35% 0.00 in 220 W/m2
16:42 71.9 °F 43.5 °F 29.91 in WSW 3.0 mph 6.0 mph 36% 0.00 in 144 W/m2
16:48 71.7 °F 44.0 °F 29.91 in WSW 3.0 mph 6.0 mph 37% 0.00 in 142 W/m2
16:54 71.5 °F 45.2 °F 29.92 in WSW 2.0 mph 4.0 mph 39% 0.00 in 171 W/m2
17:00 71.6 °F 43.9 °F 29.91 in WSW 3.0 mph 3.0 mph 37% 0.00 in 79 W/m2
17:06 71.3 °F 43.7 °F 29.92 in WSW 2.0 mph 3.0 mph 37% 0.00 in 63 W/m2
17:12 71.1 °F 44.2 °F 29.92 in SW 2.0 mph 2.0 mph 38% 0.00 in 58 W/m2
17:18 70.9 °F 44.7 °F 29.91 in WSW 2.0 mph 6.0 mph 39% 0.00 in 51 W/m2
17:24 70.6 °F 45.1 °F 29.92 in WSW 1.0 mph 4.0 mph 40% 0.00 in 42 W/m2
17:29 70.7 °F 44.5 °F 29.92 in West 3.0 mph 3.0 mph 39% 0.00 in 37 W/m2
17:36 70.6 °F 45.7 °F 29.92 in SW 4.0 mph 4.0 mph 41% 0.00 in 37 W/m2
17:42 70.2 °F 45.4 °F 29.92 in WSW 2.0 mph 2.0 mph 41% 0.00 in 32 W/m2
17:48 69.8 °F 45.0 °F 29.92 in WSW 1.0 mph 2.0 mph 41% 0.00 in 30 W/m2
17:54 69.6 °F 46.1 °F 29.92 in SSW 1.0 mph 2.0 mph 43% 0.00 in 26 W/m2
18:00 69.2 °F 46.4 °F 29.92 in WSW 1.0 mph 4.0 mph 44% 0.00 in 19 W/m2
18:06 68.8 °F 46.0 °F 29.93 in WSW 1.0 mph 4.0 mph 44% 0.00 in 11 W/m2
18:12 68.3 °F 46.1 °F 29.93 in Calm     45% 0.00 in 5 W/m2
18:18 67.8 °F 46.3 °F 29.93 in WSW 1.0 mph 2.0 mph 46% 0.00 in 0 W/m2
18:24 67.7 °F 46.7 °F 29.94 in WNW 1.0 mph 1.0 mph 47% 0.00 in 0 W/m2
18:30 67.4 °F 46.5 °F 29.94 in Calm     47% 0.00 in 0 W/m2
18:36 67.2 °F 46.8 °F 29.94 in Calm   2.0 mph 48% 0.00 in 0 W/m2
18:42 67.1 °F 46.7 °F 29.94 in Calm   2.0 mph 48% 0.00 in 0 W/m2
18:48 66.8 °F 47.6 °F 29.94 in Calm   2.0 mph 50% 0.00 in 0 W/m2
18:54 66.5 °F 47.8 °F 29.95 in WSW 1.0 mph 2.0 mph 51% 0.00 in 0 W/m2
19:00 66.1 °F 48.0 °F 29.95 in WSW 1.0 mph 1.0 mph 52% 0.00 in 0 W/m2
19:06 65.6 °F 48.0 °F 29.96 in Calm   3.0 mph 53% 0.00 in 0 W/m2
19:12 65.1 °F 49.0 °F 29.95 in Calm     56% 0.00 in 0 W/m2
19:18 64.7 °F 49.1 °F 29.96 in North 1.0 mph 1.0 mph 57% 0.00 in 0 W/m2
19:24 64.4 °F 49.8 °F 29.97 in North 1.0 mph 3.0 mph 59% 0.00 in 0 W/m2
19:30 64.3 °F 50.1 °F 29.97 in NNW 1.0 mph 1.0 mph 60% 0.00 in 0 W/m2
19:36 64.5 °F 50.3 °F 29.97 in NNW 1.0 mph 1.0 mph 60% 0.00 in 0 W/m2
19:42 64.6 °F 49.5 °F 29.97 in NNW 2.0 mph 4.0 mph 58% 0.00 in 0 W/m2
19:48 65.2 °F 49.6 °F 29.97 in NNW 2.0 mph 6.0 mph 57% 0.00 in 0 W/m2
19:53 65.2 °F 49.6 °F 29.97 in SW 2.0 mph 3.0 mph 57% 0.00 in 0 W/m2
20:00 65.4 °F 49.8 °F 29.97 in NW 1.0 mph 1.0 mph 57% 0.00 in 0 W/m2
20:06 65.4 °F 49.8 °F 29.97 in West 2.0 mph 2.0 mph 57% 0.00 in 0 W/m2
20:12 65.4 °F 49.8 °F 29.97 in NW 2.0 mph 2.0 mph 57% 0.00 in 0 W/m2
20:18 65.0 °F 49.4 °F 29.98 in WNW 1.0 mph 3.0 mph 57% 0.00 in 0 W/m2
20:24 64.7 °F 49.6 °F 29.98 in NNW 2.0 mph 2.0 mph 58% 0.00 in 0 W/m2
20:30 64.5 °F 49.4 °F 29.98 in WNW 2.0 mph 4.0 mph 58% 0.00 in 0 W/m2
20:36 64.3 °F 49.2 °F 29.98 in West 2.0 mph 4.0 mph 58% 0.00 in 0 W/m2
20:48 63.9 °F 49.7 °F 29.98 in WNW 2.0 mph 3.0 mph 60% 0.00 in 0 W/m2
20:54 63.6 °F 49.5 °F 29.99 in NW 2.0 mph 4.0 mph 60% 0.00 in 0 W/m2
21:00 63.4 °F 49.7 °F 29.99 in WNW 2.0 mph 2.0 mph 61% 0.00 in 0 W/m2
21:06 63.2 °F 49.5 °F 29.99 in WNW 2.0 mph 2.0 mph 61% 0.00 in 0 W/m2
21:12 62.9 °F 49.7 °F 30.00 in WSW 1.0 mph 1.0 mph 62% 0.00 in 0 W/m2
21:18 62.8 °F 50.0 °F 30.00 in East 1.0 mph 1.0 mph 63% 0.00 in 0 W/m2
21:23 62.6 °F 49.8 °F 30.00 in WNW 1.0 mph 2.0 mph 63% 0.00 in 0 W/m2
21:30 62.4 °F 50.1 °F 30.00 in WSW 1.0 mph 6.0 mph 64% 0.00 in 0 W/m2
21:36 62.4 °F 49.6 °F 30.00 in NW 2.0 mph 6.0 mph 63% 0.00 in 0 W/m2
21:42 62.3 °F 50.0 °F 30.01 in WSW 1.0 mph 1.0 mph 64% 0.00 in 0 W/m2
21:48 62.0 °F 49.7 °F 30.01 in NW 1.0 mph 6.0 mph 64% 0.00 in 0 W/m2
21:54 61.7 °F 49.4 °F 30.01 in NW 1.0 mph 1.0 mph 64% 0.00 in 0 W/m2
22:00 61.7 °F 49.4 °F 30.01 in West 1.0 mph 1.0 mph 64% 0.00 in 0 W/m2
22:06 61.3 °F 49.4 °F 30.01 in West 1.0 mph 1.0 mph 65% 0.00 in 0 W/m2
22:12 60.8 °F 49.4 °F 30.01 in Calm     66% 0.00 in 0 W/m2
22:18 60.7 °F 49.7 °F 30.01 in West 1.0 mph 1.0 mph 67% 0.00 in 0 W/m2
22:24 60.6 °F 49.6 °F 30.01 in West 1.0 mph 3.0 mph 67% 0.00 in 0 W/m2
22:30 60.5 °F 49.5 °F 30.01 in West 1.0 mph 1.0 mph 67% 0.00 in 0 W/m2
22:36 60.3 °F 49.3 °F 30.01 in Calm   1.0 mph 67% 0.00 in 0 W/m2
22:42 59.8 °F 49.2 °F 30.01 in Calm     68% 0.00 in 0 W/m2
22:48 59.3 °F 49.1 °F 30.01 in Calm   3.0 mph 69% 0.00 in 0 W/m2
22:54 59.1 °F 48.9 °F 30.01 in Calm     69% 0.00 in 0 W/m2
23:00 58.7 °F 48.6 °F 30.01 in Calm     69% 0.00 in 0 W/m2
23:06 58.3 °F 48.2 °F 30.02 in Calm   2.0 mph 69% 0.00 in 0 W/m2
23:14 58.1 °F 48.4 °F 30.02 in Calm     70% 0.00 in 0 W/m2
23:20 57.9 °F 48.6 °F 30.02 in Calm     71% 0.00 in 0 W/m2
23:26 57.7 °F 48.0 °F 30.02 in Calm     70% 0.00 in 0 W/m2
23:32 57.5 °F 47.8 °F 30.03 in Calm     70% 0.00 in 0 W/m2
23:38 57.1 °F 47.8 °F 30.03 in Calm   2.0 mph 71% 0.00 in 0 W/m2
23:44 57.0 °F 47.7 °F 30.03 in Calm     71% 0.00 in 0 W/m2
23:50 56.8 °F 47.5 °F 30.03 in Calm     71% 0.00 in 0 W/m2
23:56 56.6 °F 47.3 °F 30.03 in Calm     71% 0.00 in 0 W/m2
Country Meadow, Clay, NY, USA
Compliments of Weather Underground - 2 mb